sensor_id;sensor_type;location;lat;lon;timestamp;P1;durP1;ratioP1;P2;durP2;ratioP2
15218;SDS011;15623;53.986;11.676;2022-11-20T00:01:05;12.63;;;9.90;;
15218;SDS011;15623;53.986;11.676;2022-11-20T00:03:48;20.27;;;13.73;;
15218;SDS011;15623;53.986;11.676;2022-11-20T00:06:18;11.33;;;10.23;;
15218;SDS011;15623;53.986;11.676;2022-11-20T00:08:45;6.47;;;5.80;;
15218;SDS011;15623;53.986;11.676;2022-11-20T00:11:14;6.27;;;5.77;;
15218;SDS011;15623;53.986;11.676;2022-11-20T00:13:43;6.40;;;5.90;;
15218;SDS011;15623;53.986;11.676;2022-11-20T00:16:11;5.83;;;5.30;;
15218;SDS011;15623;53.986;11.676;2022-11-20T00:18:39;7.03;;;6.43;;
15218;SDS011;15623;53.986;11.676;2022-11-20T00:21:09;5.90;;;5.40;;
15218;SDS011;15623;53.986;11.676;2022-11-20T00:23:37;6.63;;;6.13;;
15218;SDS011;15623;53.986;11.676;2022-11-20T00:26:05;13.80;;;12.53;;
15218;SDS011;15623;53.986;11.676;2022-11-20T00:28:33;10.17;;;9.37;;
15218;SDS011;15623;53.986;11.676;2022-11-20T00:31:03;7.10;;;6.60;;
15218;SDS011;15623;53.986;11.676;2022-11-20T00:33:32;9.23;;;8.47;;
15218;SDS011;15623;53.986;11.676;2022-11-20T00:36:00;7.00;;;6.50;;
15218;SDS011;15623;53.986;11.676;2022-11-20T00:38:27;8.53;;;7.73;;
15218;SDS011;15623;53.986;11.676;2022-11-20T00:40:56;9.47;;;8.77;;
15218;SDS011;15623;53.986;11.676;2022-11-20T00:43:23;13.43;;;12.23;;
15218;SDS011;15623;53.986;11.676;2022-11-20T00:45:55;5.60;;;5.20;;
15218;SDS011;15623;53.986;11.676;2022-11-20T00:48:25;9.03;;;8.37;;
15218;SDS011;15623;53.986;11.676;2022-11-20T00:50:52;6.33;;;5.80;;
15218;SDS011;15623;53.986;11.676;2022-11-20T00:53:20;3.00;;;2.80;;
15218;SDS011;15623;53.986;11.676;2022-11-20T00:55:54;8.00;;;7.30;;
15218;SDS011;15623;53.986;11.676;2022-11-20T00:58:22;8.20;;;7.60;;
15218;SDS011;15623;53.986;11.676;2022-11-20T01:00:50;6.77;;;6.27;;
15218;SDS011;15623;53.986;11.676;2022-11-20T01:03:17;8.67;;;7.87;;
15218;SDS011;15623;53.986;11.676;2022-11-20T01:05:46;14.73;;;13.33;;
15218;SDS011;15623;53.986;11.676;2022-11-20T01:08:13;6.20;;;5.80;;
15218;SDS011;15623;53.986;11.676;2022-11-20T01:10:40;5.73;;;5.33;;
15218;SDS011;15623;53.986;11.676;2022-11-20T01:13:08;3.57;;;3.37;;
15218;SDS011;15623;53.986;11.676;2022-11-20T01:15:52;9.77;;;9.07;;
15218;SDS011;15623;53.986;11.676;2022-11-20T01:18:20;3.03;;;2.87;;
15218;SDS011;15623;53.986;11.676;2022-11-20T01:20:49;2.90;;;2.70;;
15218;SDS011;15623;53.986;11.676;2022-11-20T01:23:16;3.00;;;2.80;;
15218;SDS011;15623;53.986;11.676;2022-11-20T01:25:43;5.87;;;5.47;;
15218;SDS011;15623;53.986;11.676;2022-11-20T01:28:11;2.63;;;2.43;;
15218;SDS011;15623;53.986;11.676;2022-11-20T01:30:38;2.63;;;2.53;;
15218;SDS011;15623;53.986;11.676;2022-11-20T01:33:06;3.03;;;2.83;;
15218;SDS011;15623;53.986;11.676;2022-11-20T01:35:33;3.23;;;3.03;;
15218;SDS011;15623;53.986;11.676;2022-11-20T01:38:02;4.13;;;3.83;;
15218;SDS011;15623;53.986;11.676;2022-11-20T01:40:30;4.53;;;4.23;;
15218;SDS011;15623;53.986;11.676;2022-11-20T01:43:00;4.77;;;4.43;;
15218;SDS011;15623;53.986;11.676;2022-11-20T01:46:02;4.97;;;4.63;;
15218;SDS011;15623;53.986;11.676;2022-11-20T01:48:31;6.00;;;5.60;;
15218;SDS011;15623;53.986;11.676;2022-11-20T01:50:59;7.13;;;6.53;;
15218;SDS011;15623;53.986;11.676;2022-11-20T01:53:30;7.10;;;6.57;;
15218;SDS011;15623;53.986;11.676;2022-11-20T01:55:59;8.20;;;7.50;;
15218;SDS011;15623;53.986;11.676;2022-11-20T01:58:27;9.07;;;8.27;;
15218;SDS011;15623;53.986;11.676;2022-11-20T02:00:55;9.70;;;8.80;;
15218;SDS011;15623;53.986;11.676;2022-11-20T02:03:23;10.00;;;9.10;;
15218;SDS011;15623;53.986;11.676;2022-11-20T02:05:51;10.30;;;9.20;;
15218;SDS011;15623;53.986;11.676;2022-11-20T02:08:19;10.50;;;9.47;;
15218;SDS011;15623;53.986;11.676;2022-11-20T02:10:49;10.07;;;9.07;;
15218;SDS011;15623;53.986;11.676;2022-11-20T02:13:16;8.57;;;7.77;;
15218;SDS011;15623;53.986;11.676;2022-11-20T02:16:01;8.53;;;7.80;;
15218;SDS011;15623;53.986;11.676;2022-11-20T02:18:29;9.13;;;8.23;;
15218;SDS011;15623;53.986;11.676;2022-11-20T02:20:58;9.23;;;8.00;;
15218;SDS011;15623;53.986;11.676;2022-11-20T02:23:27;8.70;;;7.90;;
15218;SDS011;15623;53.986;11.676;2022-11-20T02:25:59;8.17;;;7.47;;
15218;SDS011;15623;53.986;11.676;2022-11-20T02:31:15;7.03;;;6.43;;
15218;SDS011;15623;53.986;11.676;2022-11-20T02:33:43;6.13;;;5.63;;
15218;SDS011;15623;53.986;11.676;2022-11-20T02:36:11;5.67;;;5.20;;
15218;SDS011;15623;53.986;11.676;2022-11-20T02:38:43;4.90;;;4.50;;
15218;SDS011;15623;53.986;11.676;2022-11-20T02:41:15;5.10;;;4.70;;
15218;SDS011;15623;53.986;11.676;2022-11-20T02:43:42;5.30;;;4.90;;
15218;SDS011;15623;53.986;11.676;2022-11-20T02:46:10;5.13;;;4.63;;
15218;SDS011;15623;53.986;11.676;2022-11-20T02:48:37;4.93;;;4.53;;
15218;SDS011;15623;53.986;11.676;2022-11-20T02:51:05;4.10;;;3.80;;
15218;SDS011;15623;53.986;11.676;2022-11-20T02:53:33;3.50;;;3.30;;
15218;SDS011;15623;53.986;11.676;2022-11-20T02:56:00;2.90;;;2.70;;
15218;SDS011;15623;53.986;11.676;2022-11-20T02:58:29;2.83;;;2.63;;
15218;SDS011;15623;53.986;11.676;2022-11-20T03:00:56;3.00;;;2.80;;
15218;SDS011;15623;53.986;11.676;2022-11-20T03:03:24;3.30;;;3.10;;
15218;SDS011;15623;53.986;11.676;2022-11-20T03:05:52;3.30;;;3.10;;
15218;SDS011;15623;53.986;11.676;2022-11-20T03:08:19;3.70;;;3.40;;
15218;SDS011;15623;53.986;11.676;2022-11-20T03:10:47;4.37;;;4.07;;
15218;SDS011;15623;53.986;11.676;2022-11-20T03:13:14;4.70;;;4.30;;
15218;SDS011;15623;53.986;11.676;2022-11-20T03:15:43;4.53;;;4.23;;
15218;SDS011;15623;53.986;11.676;2022-11-20T03:18:11;4.90;;;4.50;;
15218;SDS011;15623;53.986;11.676;2022-11-20T03:20:40;7.93;;;5.10;;
15218;SDS011;15623;53.986;11.676;2022-11-20T03:23:07;6.23;;;4.43;;
15218;SDS011;15623;53.986;11.676;2022-11-20T03:25:35;16.03;;;4.97;;
15218;SDS011;15623;53.986;11.676;2022-11-20T03:28:03;6.83;;;4.83;;
15218;SDS011;15623;53.986;11.676;2022-11-20T03:30:30;18.87;;;5.50;;
15218;SDS011;15623;53.986;11.676;2022-11-20T03:33:00;6.53;;;5.53;;
15218;SDS011;15623;53.986;11.676;2022-11-20T03:35:27;6.17;;;5.57;;
15218;SDS011;15623;53.986;11.676;2022-11-20T03:37:55;7.07;;;6.37;;
15218;SDS011;15623;53.986;11.676;2022-11-20T03:40:22;10.10;;;7.67;;
15218;SDS011;15623;53.986;11.676;2022-11-20T03:42:50;9.93;;;7.50;;
15218;SDS011;15623;53.986;11.676;2022-11-20T03:45:17;12.77;;;8.67;;
15218;SDS011;15623;53.986;11.676;2022-11-20T03:47:45;11.37;;;8.37;;
15218;SDS011;15623;53.986;11.676;2022-11-20T03:50:15;10.23;;;8.60;;
15218;SDS011;15623;53.986;11.676;2022-11-20T03:52:42;11.33;;;8.70;;
15218;SDS011;15623;53.986;11.676;2022-11-20T03:55:10;12.17;;;8.30;;
15218;SDS011;15623;53.986;11.676;2022-11-20T03:57:37;13.37;;;9.27;;
15218;SDS011;15623;53.986;11.676;2022-11-20T04:00:05;17.07;;;10.43;;
15218;SDS011;15623;53.986;11.676;2022-11-20T04:02:33;19.00;;;11.63;;
15218;SDS011;15623;53.986;11.676;2022-11-20T04:05:00;16.43;;;10.47;;
15218;SDS011;15623;53.986;11.676;2022-11-20T04:07:30;18.40;;;11.33;;
15218;SDS011;15623;53.986;11.676;2022-11-20T04:09:57;17.83;;;10.53;;
15218;SDS011;15623;53.986;11.676;2022-11-20T04:12:25;19.77;;;11.43;;
15218;SDS011;15623;53.986;11.676;2022-11-20T04:14:52;14.60;;;9.63;;
15218;SDS011;15623;53.986;11.676;2022-11-20T04:17:20;13.23;;;9.20;;
15218;SDS011;15623;53.986;11.676;2022-11-20T04:19:47;11.57;;;9.03;;
15218;SDS011;15623;53.986;11.676;2022-11-20T04:22:15;10.97;;;9.13;;
15218;SDS011;15623;53.986;11.676;2022-11-20T04:24:44;12.90;;;9.03;;
15218;SDS011;15623;53.986;11.676;2022-11-20T04:27:12;9.30;;;8.10;;
15218;SDS011;15623;53.986;11.676;2022-11-20T04:29:39;11.40;;;8.90;;
15218;SDS011;15623;53.986;11.676;2022-11-20T04:32:06;12.60;;;9.07;;
15218;SDS011;15623;53.986;11.676;2022-11-20T04:34:34;14.90;;;10.43;;
15218;SDS011;15623;53.986;11.676;2022-11-20T04:37:02;16.40;;;11.13;;
15218;SDS011;15623;53.986;11.676;2022-11-20T04:39:29;18.03;;;11.30;;
15218;SDS011;15623;53.986;11.676;2022-11-20T04:41:58;20.03;;;12.57;;
15218;SDS011;15623;53.986;11.676;2022-11-20T04:44:43;16.90;;;10.47;;
15218;SDS011;15623;53.986;11.676;2022-11-20T04:47:10;16.30;;;10.63;;
15218;SDS011;15623;53.986;11.676;2022-11-20T04:49:38;17.37;;;10.93;;
15218;SDS011;15623;53.986;11.676;2022-11-20T04:52:05;18.70;;;11.40;;
15218;SDS011;15623;53.986;11.676;2022-11-20T04:54:33;28.90;;;13.30;;
15218;SDS011;15623;53.986;11.676;2022-11-20T04:57:02;26.57;;;14.13;;
15218;SDS011;15623;53.986;11.676;2022-11-20T04:59:30;24.40;;;14.10;;
15218;SDS011;15623;53.986;11.676;2022-11-20T05:01:57;26.73;;;13.77;;
15218;SDS011;15623;53.986;11.676;2022-11-20T05:04:25;23.30;;;14.03;;
15218;SDS011;15623;53.986;11.676;2022-11-20T05:06:52;22.03;;;12.53;;
15218;SDS011;15623;53.986;11.676;2022-11-20T05:09:20;17.57;;;11.90;;
15218;SDS011;15623;53.986;11.676;2022-11-20T05:11:47;17.67;;;11.87;;
15218;SDS011;15623;53.986;11.676;2022-11-20T05:14:16;19.97;;;12.43;;
15218;SDS011;15623;53.986;11.676;2022-11-20T05:16:44;16.97;;;11.80;;
15218;SDS011;15623;53.986;11.676;2022-11-20T05:19:12;14.30;;;10.20;;
15218;SDS011;15623;53.986;11.676;2022-11-20T05:21:39;15.77;;;10.90;;
15218;SDS011;15623;53.986;11.676;2022-11-20T05:24:07;13.27;;;9.67;;
15218;SDS011;15623;53.986;11.676;2022-11-20T05:26:35;10.90;;;8.47;;
15218;SDS011;15623;53.986;11.676;2022-11-20T05:29:02;11.53;;;8.37;;
15218;SDS011;15623;53.986;11.676;2022-11-20T05:31:31;10.40;;;8.00;;
15218;SDS011;15623;53.986;11.676;2022-11-20T05:33:59;7.77;;;6.47;;
15218;SDS011;15623;53.986;11.676;2022-11-20T05:36:26;7.73;;;6.50;;
15218;SDS011;15623;53.986;11.676;2022-11-20T05:38:54;6.83;;;6.13;;
15218;SDS011;15623;53.986;11.676;2022-11-20T05:41:22;7.80;;;6.23;;
15218;SDS011;15623;53.986;11.676;2022-11-20T05:43:49;7.27;;;6.57;;
15218;SDS011;15623;53.986;11.676;2022-11-20T05:46:18;7.60;;;6.30;;
15218;SDS011;15623;53.986;11.676;2022-11-20T05:48:47;7.77;;;6.67;;
15218;SDS011;15623;53.986;11.676;2022-11-20T05:51:16;8.63;;;6.47;;
15218;SDS011;15623;53.986;11.676;2022-11-20T05:53:43;6.37;;;5.77;;
15218;SDS011;15623;53.986;11.676;2022-11-20T05:56:12;6.70;;;5.53;;
15218;SDS011;15623;53.986;11.676;2022-11-20T05:58:39;8.47;;;6.67;;
15218;SDS011;15623;53.986;11.676;2022-11-20T06:01:08;7.60;;;6.70;;
15218;SDS011;15623;53.986;11.676;2022-11-20T06:03:36;8.57;;;7.17;;
15218;SDS011;15623;53.986;11.676;2022-11-20T06:06:06;9.80;;;8.03;;
15218;SDS011;15623;53.986;11.676;2022-11-20T06:08:34;8.13;;;6.93;;
15218;SDS011;15623;53.986;11.676;2022-11-20T06:11:04;8.70;;;7.10;;
15218;SDS011;15623;53.986;11.676;2022-11-20T06:13:32;9.13;;;7.30;;
15218;SDS011;15623;53.986;11.676;2022-11-20T06:16:00;8.67;;;7.20;;
15218;SDS011;15623;53.986;11.676;2022-11-20T06:18:28;7.57;;;6.33;;
15218;SDS011;15623;53.986;11.676;2022-11-20T06:20:59;6.10;;;5.07;;
15218;SDS011;15623;53.986;11.676;2022-11-20T06:23:29;5.10;;;4.60;;
15218;SDS011;15623;53.986;11.676;2022-11-20T06:25:56;4.37;;;3.90;;
15218;SDS011;15623;53.986;11.676;2022-11-20T06:28:24;3.80;;;3.40;;
15218;SDS011;15623;53.986;11.676;2022-11-20T06:30:51;3.23;;;2.93;;
15218;SDS011;15623;53.986;11.676;2022-11-20T06:33:19;3.40;;;3.10;;
15218;SDS011;15623;53.986;11.676;2022-11-20T06:35:46;2.60;;;2.40;;
15218;SDS011;15623;53.986;11.676;2022-11-20T06:38:14;4.10;;;2.60;;
15218;SDS011;15623;53.986;11.676;2022-11-20T06:40:43;2.50;;;2.30;;
15218;SDS011;15623;53.986;11.676;2022-11-20T06:43:10;2.17;;;2.07;;
15218;SDS011;15623;53.986;11.676;2022-11-20T06:45:38;2.00;;;1.90;;
15218;SDS011;15623;53.986;11.676;2022-11-20T06:48:05;2.10;;;2.00;;
15218;SDS011;15623;53.986;11.676;2022-11-20T06:50:33;2.17;;;2.07;;
15218;SDS011;15623;53.986;11.676;2022-11-20T06:53:01;2.07;;;1.97;;
15218;SDS011;15623;53.986;11.676;2022-11-20T06:55:29;2.20;;;2.10;;
15218;SDS011;15623;53.986;11.676;2022-11-20T06:57:58;2.70;;;2.50;;
15218;SDS011;15623;53.986;11.676;2022-11-20T07:00:25;3.67;;;3.37;;
15218;SDS011;15623;53.986;11.676;2022-11-20T07:02:52;4.93;;;4.53;;
15218;SDS011;15623;53.986;11.676;2022-11-20T07:05:20;5.20;;;4.70;;
15218;SDS011;15623;53.986;11.676;2022-11-20T07:07:47;6.20;;;5.60;;
15218;SDS011;15623;53.986;11.676;2022-11-20T07:10:15;6.60;;;5.47;;
15218;SDS011;15623;53.986;11.676;2022-11-20T07:12:48;6.17;;;5.57;;
15218;SDS011;15623;53.986;11.676;2022-11-20T07:15:19;5.87;;;5.37;;
15218;SDS011;15623;53.986;11.676;2022-11-20T07:17:46;5.67;;;5.17;;
15218;SDS011;15623;53.986;11.676;2022-11-20T07:20:14;5.90;;;5.40;;
15218;SDS011;15623;53.986;11.676;2022-11-20T07:22:42;6.10;;;5.53;;
15218;SDS011;15623;53.986;11.676;2022-11-20T07:25:10;6.13;;;5.53;;
15218;SDS011;15623;53.986;11.676;2022-11-20T07:27:37;6.70;;;6.10;;
15218;SDS011;15623;53.986;11.676;2022-11-20T07:30:05;5.90;;;5.30;;
15218;SDS011;15623;53.986;11.676;2022-11-20T07:32:34;5.43;;;4.97;;
15218;SDS011;15623;53.986;11.676;2022-11-20T07:35:02;6.40;;;5.80;;
15218;SDS011;15623;53.986;11.676;2022-11-20T07:37:30;5.93;;;5.43;;
15218;SDS011;15623;53.986;11.676;2022-11-20T07:39:57;5.43;;;4.93;;
15218;SDS011;15623;53.986;11.676;2022-11-20T07:42:25;4.90;;;4.50;;
15218;SDS011;15623;53.986;11.676;2022-11-20T07:44:53;4.67;;;4.27;;
15218;SDS011;15623;53.986;11.676;2022-11-20T07:47:20;4.53;;;4.13;;
15218;SDS011;15623;53.986;11.676;2022-11-20T07:49:49;4.73;;;4.33;;
15218;SDS011;15623;53.986;11.676;2022-11-20T07:52:16;5.03;;;4.63;;
15218;SDS011;15623;53.986;11.676;2022-11-20T07:54:44;5.17;;;4.77;;
15218;SDS011;15623;53.986;11.676;2022-11-20T07:57:12;5.43;;;5.03;;
15218;SDS011;15623;53.986;11.676;2022-11-20T07:59:39;6.07;;;5.53;;
15218;SDS011;15623;53.986;11.676;2022-11-20T08:02:09;7.03;;;6.43;;
15218;SDS011;15623;53.986;11.676;2022-11-20T08:04:37;7.10;;;6.50;;
15218;SDS011;15623;53.986;11.676;2022-11-20T08:07:07;6.80;;;6.20;;
15218;SDS011;15623;53.986;11.676;2022-11-20T08:09:35;8.07;;;7.27;;
15218;SDS011;15623;53.986;11.676;2022-11-20T08:12:03;8.00;;;7.20;;
15218;SDS011;15623;53.986;11.676;2022-11-20T08:14:48;6.93;;;6.27;;
15218;SDS011;15623;53.986;11.676;2022-11-20T08:17:15;8.03;;;7.23;;
15218;SDS011;15623;53.986;11.676;2022-11-20T08:19:43;9.03;;;8.07;;
15218;SDS011;15623;53.986;11.676;2022-11-20T08:22:11;10.10;;;8.83;;
15218;SDS011;15623;53.986;11.676;2022-11-20T08:24:39;9.97;;;8.93;;
15218;SDS011;15623;53.986;11.676;2022-11-20T08:27:07;9.83;;;8.53;;
15218;SDS011;15623;53.986;11.676;2022-11-20T08:29:34;9.60;;;8.60;;
15218;SDS011;15623;53.986;11.676;2022-11-20T08:32:02;11.23;;;8.70;;
15218;SDS011;15623;53.986;11.676;2022-11-20T08:34:29;21.47;;;9.90;;
15218;SDS011;15623;53.986;11.676;2022-11-20T08:36:57;20.57;;;10.83;;
15218;SDS011;15623;53.986;11.676;2022-11-20T08:39:28;24.83;;;11.13;;
15218;SDS011;15623;53.986;11.676;2022-11-20T08:41:56;39.57;;;11.33;;
15218;SDS011;15623;53.986;11.676;2022-11-20T08:44:23;33.17;;;11.87;;
15218;SDS011;15623;53.986;11.676;2022-11-20T08:46:51;55.60;;;13.23;;
15218;SDS011;15623;53.986;11.676;2022-11-20T08:49:18;51.93;;;11.97;;
15218;SDS011;15623;53.986;11.676;2022-11-20T08:51:47;30.43;;;11.97;;
15218;SDS011;15623;53.986;11.676;2022-11-20T08:54:17;28.53;;;10.10;;
15218;SDS011;15623;53.986;11.676;2022-11-20T08:56:48;18.70;;;9.70;;
15218;SDS011;15623;53.986;11.676;2022-11-20T08:59:18;17.90;;;9.80;;
15218;SDS011;15623;53.986;11.676;2022-11-20T09:01:47;12.87;;;9.10;;
15218;SDS011;15623;53.986;11.676;2022-11-20T09:04:15;9.83;;;8.13;;
15218;SDS011;15623;53.986;11.676;2022-11-20T09:06:43;10.53;;;8.20;;
15218;SDS011;15623;53.986;11.676;2022-11-20T09:09:16;7.93;;;7.13;;
15218;SDS011;15623;53.986;11.676;2022-11-20T09:11:53;7.33;;;6.63;;
15218;SDS011;15623;53.986;11.676;2022-11-20T09:16:54;7.00;;;6.40;;
15218;SDS011;15623;53.986;11.676;2022-11-20T09:19:39;6.47;;;5.87;;
15218;SDS011;15623;53.986;11.676;2022-11-20T09:22:15;5.90;;;5.40;;
15218;SDS011;15623;53.986;11.676;2022-11-20T09:24:51;5.90;;;5.40;;
15218;SDS011;15623;53.986;11.676;2022-11-20T09:27:21;6.10;;;5.60;;
15218;SDS011;15623;53.986;11.676;2022-11-20T09:29:49;7.33;;;6.70;;
15218;SDS011;15623;53.986;11.676;2022-11-20T09:32:16;7.73;;;7.03;;
15218;SDS011;15623;53.986;11.676;2022-11-20T09:34:44;7.97;;;7.17;;
15218;SDS011;15623;53.986;11.676;2022-11-20T09:37:12;7.80;;;7.10;;
15218;SDS011;15623;53.986;11.676;2022-11-20T09:39:41;8.73;;;7.50;;
15218;SDS011;15623;53.986;11.676;2022-11-20T09:42:14;7.33;;;6.73;;
15218;SDS011;15623;53.986;11.676;2022-11-20T09:44:53;7.10;;;6.40;;
15218;SDS011;15623;53.986;11.676;2022-11-20T09:47:28;6.70;;;6.20;;
15218;SDS011;15623;53.986;11.676;2022-11-20T09:50:04;6.53;;;6.03;;
15218;SDS011;15623;53.986;11.676;2022-11-20T09:52:37;6.67;;;6.17;;
15218;SDS011;15623;53.986;11.676;2022-11-20T09:55:09;6.27;;;5.77;;
15218;SDS011;15623;53.986;11.676;2022-11-20T09:57:38;6.23;;;5.73;;
15218;SDS011;15623;53.986;11.676;2022-11-20T10:00:11;7.10;;;6.50;;
15218;SDS011;15623;53.986;11.676;2022-11-20T10:02:42;7.23;;;6.63;;
15218;SDS011;15623;53.986;11.676;2022-11-20T10:05:11;6.90;;;6.40;;
15218;SDS011;15623;53.986;11.676;2022-11-20T10:07:41;7.70;;;7.10;;
15218;SDS011;15623;53.986;11.676;2022-11-20T10:10:13;7.30;;;6.70;;
15218;SDS011;15623;53.986;11.676;2022-11-20T10:12:45;6.93;;;6.43;;
15218;SDS011;15623;53.986;11.676;2022-11-20T10:15:22;7.33;;;6.67;;
15218;SDS011;15623;53.986;11.676;2022-11-20T10:17:56;7.13;;;6.60;;
15218;SDS011;15623;53.986;11.676;2022-11-20T10:20:27;7.17;;;6.67;;
15218;SDS011;15623;53.986;11.676;2022-11-20T10:23:03;7.07;;;6.57;;
15218;SDS011;15623;53.986;11.676;2022-11-20T10:25:38;6.50;;;6.00;;
15218;SDS011;15623;53.986;11.676;2022-11-20T10:28:10;6.37;;;5.87;;
15218;SDS011;15623;53.986;11.676;2022-11-20T10:30:43;6.90;;;6.30;;
15218;SDS011;15623;53.986;11.676;2022-11-20T10:33:13;7.90;;;7.30;;
15218;SDS011;15623;53.986;11.676;2022-11-20T10:35:43;9.27;;;8.33;;
15218;SDS011;15623;53.986;11.676;2022-11-20T10:38:14;8.97;;;8.27;;
15218;SDS011;15623;53.986;11.676;2022-11-20T10:40:44;9.40;;;8.60;;
15218;SDS011;15623;53.986;11.676;2022-11-20T10:43:13;9.83;;;8.83;;
15218;SDS011;15623;53.986;11.676;2022-11-20T10:45:46;10.23;;;9.33;;
15218;SDS011;15623;53.986;11.676;2022-11-20T10:48:19;10.23;;;9.20;;
15218;SDS011;15623;53.986;11.676;2022-11-20T10:50:51;11.67;;;10.17;;
15218;SDS011;15623;53.986;11.676;2022-11-20T10:53:22;11.83;;;10.63;;
15218;SDS011;15623;53.986;11.676;2022-11-20T10:55:55;9.33;;;8.53;;
15218;SDS011;15623;53.986;11.676;2022-11-20T10:58:28;9.53;;;8.63;;
15218;SDS011;15623;53.986;11.676;2022-11-20T11:01:13;10.70;;;9.60;;
15218;SDS011;15623;53.986;11.676;2022-11-20T11:03:41;10.43;;;9.33;;
15218;SDS011;15623;53.986;11.676;2022-11-20T11:06:10;9.33;;;8.43;;
15218;SDS011;15623;53.986;11.676;2022-11-20T11:08:42;8.33;;;7.63;;
15218;SDS011;15623;53.986;11.676;2022-11-20T11:11:14;8.17;;;7.47;;
15218;SDS011;15623;53.986;11.676;2022-11-20T11:13:44;8.33;;;7.63;;
15218;SDS011;15623;53.986;11.676;2022-11-20T11:16:18;8.47;;;7.77;;
15218;SDS011;15623;53.986;11.676;2022-11-20T11:18:48;8.37;;;7.67;;
15218;SDS011;15623;53.986;11.676;2022-11-20T11:21:20;7.60;;;7.00;;
15218;SDS011;15623;53.986;11.676;2022-11-20T11:23:56;7.23;;;6.73;;
15218;SDS011;15623;53.986;11.676;2022-11-20T11:26:25;6.97;;;6.47;;
15218;SDS011;15623;53.986;11.676;2022-11-20T11:37:24;6.47;;;5.97;;
15218;SDS011;15623;53.986;11.676;2022-11-20T11:42:42;7.37;;;6.87;;
15218;SDS011;15623;53.986;11.676;2022-11-20T11:45:25;7.23;;;6.73;;
15218;SDS011;15623;53.986;11.676;2022-11-20T11:48:56;9.27;;;8.47;;
15218;SDS011;15623;53.986;11.676;2022-11-20T11:51:29;10.13;;;9.07;;
15218;SDS011;15623;53.986;11.676;2022-11-20T12:00:30;6.17;;;5.77;;
15218;SDS011;15623;53.986;11.676;2022-11-20T12:03:16;8.47;;;7.87;;
15218;SDS011;15623;53.986;11.676;2022-11-20T12:06:18;4.77;;;4.47;;
15218;SDS011;15623;53.986;11.676;2022-11-20T12:09:05;5.10;;;4.80;;
15218;SDS011;15623;53.986;11.676;2022-11-20T12:11:35;5.97;;;5.57;;
15218;SDS011;15623;53.986;11.676;2022-11-20T12:14:08;9.10;;;8.40;;
15218;SDS011;15623;53.986;11.676;2022-11-20T12:16:38;4.60;;;4.20;;
15218;SDS011;15623;53.986;11.676;2022-11-20T12:19:08;3.50;;;3.30;;
15218;SDS011;15623;53.986;11.676;2022-11-20T12:21:40;3.20;;;3.00;;
15218;SDS011;15623;53.986;11.676;2022-11-20T12:29:46;7.30;;;6.80;;
15218;SDS011;15623;53.986;11.676;2022-11-20T12:41:22;3.60;;;3.40;;
15218;SDS011;15623;53.986;11.676;2022-11-20T12:47:05;3.07;;;2.87;;
15218;SDS011;15623;53.986;11.676;2022-11-20T12:49:52;2.73;;;2.63;;
15218;SDS011;15623;53.986;11.676;2022-11-20T12:52:34;3.30;;;3.10;;
15218;SDS011;15623;53.986;11.676;2022-11-20T12:55:16;3.60;;;3.40;;
15218;SDS011;15623;53.986;11.676;2022-11-20T12:57:52;3.40;;;3.20;;
15218;SDS011;15623;53.986;11.676;2022-11-20T13:00:21;4.37;;;4.17;;
15218;SDS011;15623;53.986;11.676;2022-11-20T13:05:50;3.60;;;3.40;;
15218;SDS011;15623;53.986;11.676;2022-11-20T13:08:30;4.90;;;4.60;;
15218;SDS011;15623;53.986;11.676;2022-11-20T13:11:07;5.20;;;4.87;;
15218;SDS011;15623;53.986;11.676;2022-11-20T13:13:42;5.60;;;5.20;;
15218;SDS011;15623;53.986;11.676;2022-11-20T13:16:11;6.27;;;5.87;;
15218;SDS011;15623;53.986;11.676;2022-11-20T13:18:56;5.97;;;5.50;;
15218;SDS011;15623;53.986;11.676;2022-11-20T13:21:38;5.40;;;5.00;;
15218;SDS011;15623;53.986;11.676;2022-11-20T13:24:38;5.70;;;5.30;;
15218;SDS011;15623;53.986;11.676;2022-11-20T13:27:46;6.90;;;6.40;;
15218;SDS011;15623;53.986;11.676;2022-11-20T13:33:21;14.23;;;13.13;;
15218;SDS011;15623;53.986;11.676;2022-11-20T13:36:20;5.37;;;5.07;;
15218;SDS011;15623;53.986;11.676;2022-11-20T13:39:27;5.50;;;5.10;;
15218;SDS011;15623;53.986;11.676;2022-11-20T13:42:34;9.27;;;7.70;;
15218;SDS011;15623;53.986;11.676;2022-11-20T13:45:08;11.10;;;8.17;;
15218;SDS011;15623;53.986;11.676;2022-11-20T13:54:07;5.90;;;5.50;;
15218;SDS011;15623;53.986;11.676;2022-11-20T13:56:40;6.23;;;5.63;;
15218;SDS011;15623;53.986;11.676;2022-11-20T14:33:26;7.23;;;6.63;;
15218;SDS011;15623;53.986;11.676;2022-11-20T14:42:11;7.13;;;6.63;;
15218;SDS011;15623;53.986;11.676;2022-11-20T14:44:42;6.73;;;6.13;;
15218;SDS011;15623;53.986;11.676;2022-11-20T14:47:10;4.87;;;4.47;;
15218;SDS011;15623;53.986;11.676;2022-11-20T14:49:45;4.33;;;4.03;;
15218;SDS011;15623;53.986;11.676;2022-11-20T14:52:14;3.50;;;3.17;;
15218;SDS011;15623;53.986;11.676;2022-11-20T14:54:43;3.80;;;3.50;;
15218;SDS011;15623;53.986;11.676;2022-11-20T14:57:20;3.60;;;3.40;;
15218;SDS011;15623;53.986;11.676;2022-11-20T15:00:03;3.33;;;3.13;;
15218;SDS011;15623;53.986;11.676;2022-11-20T15:02:52;2.80;;;2.60;;
15218;SDS011;15623;53.986;11.676;2022-11-20T15:11:18;3.20;;;3.00;;
15218;SDS011;15623;53.986;11.676;2022-11-20T15:19:52;4.00;;;3.80;;
15218;SDS011;15623;53.986;11.676;2022-11-20T15:22:21;2.90;;;2.70;;
15218;SDS011;15623;53.986;11.676;2022-11-20T15:27:52;4.03;;;3.83;;
15218;SDS011;15623;53.986;11.676;2022-11-20T15:30:21;3.93;;;3.63;;
15218;SDS011;15623;53.986;11.676;2022-11-20T15:32:49;4.40;;;4.10;;
15218;SDS011;15623;53.986;11.676;2022-11-20T15:35:20;4.70;;;4.40;;
15218;SDS011;15623;53.986;11.676;2022-11-20T15:37:50;6.47;;;5.80;;
15218;SDS011;15623;53.986;11.676;2022-11-20T15:40:18;31.10;;;24.53;;
15218;SDS011;15623;53.986;11.676;2022-11-20T15:42:47;11.30;;;10.23;;
15218;SDS011;15623;53.986;11.676;2022-11-20T15:45:33;6.23;;;5.80;;
15218;SDS011;15623;53.986;11.676;2022-11-20T15:48:07;6.43;;;5.83;;
15218;SDS011;15623;53.986;11.676;2022-11-20T15:53:55;7.37;;;6.67;;
15218;SDS011;15623;53.986;11.676;2022-11-20T15:56:38;7.40;;;6.90;;
15218;SDS011;15623;53.986;11.676;2022-11-20T16:27:34;11.23;;;9.63;;
15218;SDS011;15623;53.986;11.676;2022-11-20T16:33:48;9.40;;;7.87;;
15218;SDS011;15623;53.986;11.676;2022-11-20T16:48:39;124.90;;;11.73;;
15218;SDS011;15623;53.986;11.676;2022-11-20T16:51:25;76.87;;;9.97;;
15218;SDS011;15623;53.986;11.676;2022-11-20T16:53:55;16.13;;;9.03;;
15218;SDS011;15623;53.986;11.676;2022-11-20T20:11:37;31.20;;;16.60;;
15218;SDS011;15623;53.986;11.676;2022-11-20T20:14:12;29.30;;;16.50;;
15218;SDS011;15623;53.986;11.676;2022-11-20T20:16:58;22.90;;;14.73;;
15218;SDS011;15623;53.986;11.676;2022-11-20T20:19:40;24.17;;;15.63;;
15218;SDS011;15623;53.986;11.676;2022-11-20T20:25:37;24.60;;;15.40;;
15218;SDS011;15623;53.986;11.676;2022-11-20T20:49:39;23.00;;;15.30;;
15218;SDS011;15623;53.986;11.676;2022-11-20T20:52:20;22.17;;;14.53;;
15218;SDS011;15623;53.986;11.676;2022-11-20T20:54:52;22.27;;;15.57;;
15218;SDS011;15623;53.986;11.676;2022-11-20T20:57:20;19.57;;;14.40;;
15218;SDS011;15623;53.986;11.676;2022-11-20T20:59:48;20.73;;;13.30;;
15218;SDS011;15623;53.986;11.676;2022-11-20T21:02:16;17.50;;;12.43;;
15218;SDS011;15623;53.986;11.676;2022-11-20T21:04:46;15.97;;;12.63;;
15218;SDS011;15623;53.986;11.676;2022-11-20T21:07:13;16.60;;;12.93;;